EDDB

Berlin-Schönefeld International Airport

Berlin, Germany
TAF EDDB 210500Z 2106/2206 VRB03KT 8000 OVC006 BECMG 2106/2109 20005KT PROB30 TEMPO 2106/2110 4000 BR BKN004 BECMG 2110/2113 FEW006
Issued Valid From Valid To
Jan-21 @ 05:00 UTC
(5 hours ago)
Jan-21 @ 06:00 UTC
(4 hours ago)
Jan-22 @ 06:00 UTC
(in 20 hours)
Jan-21 @ 06:00 to Jan-22 @ 06:00
TAF EDDB 210500Z 2106/2206 VRB03KT 8000 OVC006
Wind Visibility Clouds
Variable at 3 knots 7,998 meters
  • Overcast at 600' AGL
Temporary  (Probability 30%) Jan-21 @ 06:00 to Jan-21 @ 10:00
PROB30 TEMPO 2106/2110 4000 BR BKN004
Visibility Clouds Conditions
4,007 meters
  • Broken at 400' AGL
  • Mist
Becoming Jan-21 @ 06:00 to Jan-21 @ 10:00
BECMG 2106/2109 20005KT
Wind Visibility Clouds
200° at 5 knots 7,998 meters
  • Overcast at 600' AGL
Becoming Jan-21 @ 10:00 to Jan-22 @ 06:00
BECMG 2110/2113 FEW006
Wind Visibility Clouds
200° at 5 knots 7,998 meters
  • Few at 600' AGL
TAF EDDB 210500Z 2106/2206 VRB03KT 8000 OVC006 BECMG 2106/2109 20005KT PROB30 TEMPO 2106/2110 4000 BR BKN004 BECMG 2110/2113 FEW006
Issued Jan-21 @ 05:00 UTC
(5 hours ago)
Valid From Jan-21 @ 06:00 UTC
(4 hours ago)
Valid To Jan-22 @ 06:00 UTC
(in 20 hours)
Jan-21 @ 06:00 - Jan-22 @ 06:00
Wind Visibility
Variable at 3 knots 7,998 meters
Clouds
  • Overcast at 600' AGL
Probability 30% Temporary Jan-21 @ 06:00 - Jan-21 @ 10:00
Clouds
  • Broken at 400' AGL
Conditions
  • Mist
Becoming Jan-21 @ 06:00 - Jan-21 @ 10:00
Wind Visibility
200° at 5 knots 7,998 meters
Clouds
  • Overcast at 600' AGL
Becoming Jan-21 @ 10:00 - Jan-22 @ 06:00
Wind Visibility
200° at 5 knots 7,998 meters
Clouds
  • Few at 600' AGL